Airfield :
LOGIN :

Register | Disclaimer

   EN    FR    IT 

 










Legend :    VFR   Marginal VFR   IFR   Intensive IFR   Very Intensive IFR
Visi :
Ceiling :
>= 8 km
>= 3000ft
5 to 8 km
1000 to 3000 ft
1500m to 5 km
500 to 1000 ft
800 to 1500m
200 to 500 ft
< 800m
< 200 ft
Symbols :   Thunderstorms  Fog  Heavy snow  Heavy precipitations  Wind > 20 kt
SIGMETs :     Misc.  Thunderstorms  Icing  Turbulence  Mountain Waves  Volcanic Ashes







- Airport Elevation : 157 ft
- IATA code : LIL
- Download approach charts


LFQQ - Lille Lesquin

CURRENT METAR :
  • 160900Z AUTO 18008KT 1700 BR OVC002 03/03 Q1010 TEMPO 0300 FG BKN003 BKN015TCU

EXPIRED METARs :
  • 160830Z AUTO 18007KT 1300 1200 R26/1800D R08/1700U -DZ BR VV/// ///TCU 03/03 Q1010 TEMPO 1500 SHRA BKN003 BKN015TCU
  • 160800Z AUTO 19008KT 1000 0900 R26/1100U R08/1300U BCFG VV/// 03/03 Q1010 TEMPO 0300 FG BKN003 BKN015TCU
  • 160730Z AUTO 19006KT 2800 BR VV/// 02/02 Q1009 TEMPO 0300 FG BKN003 BKN015TCU
  • 160700Z AUTO 18008KT 4600 -RA BR OVC002 02/02 Q1009 TEMPO 0300 FG BKN003 BKN015TCU
  • 160630Z AUTO 19008KT 6000 OVC003/// ///TCU 02/02 Q1009 TEMPO 0300 FG VV///

TAF TAF LFQQ
Valid from the 16 at 06:00 until the 17 at 12:00 UTC


160500Z 1606/1712 18015KT 4000 BR OVC007
TEMPO 1606/1612 1500 SHRA BKN003 BKN015TCU
PROB40
TEMPO 1606/1610 0300 FG VV///
PROB30
TEMPO 1612/1616 7000 BKN013
BECMG 1623/1701 2000 RA OVC003
BECMG 1701/1704 24012KT 7000 NSW BKN025
ATIS : +33 3 20 16 19 54
No reported NOTAMs for that airfield.



MET'MAP, your aeronautical weather chart ! - Copyright ORBIFLY December 2007 - Disclaimer

ORBIFLY MET'MAP TEAM :

Programming & Development : Alexandra Zaïnal
Concept & Development : Baudouin d'Aumeries
Co-Development & Prog : Marc-Olivier Méhu
Technical & hardware support : Manuel Goepfert

Contact : metmap@orbifly.com




SOURCES & CREDITS :

   NOAA